Time;durP1;ratioP1;P1;durP2;ratioP2;P2;SDS_P1;SDS_P2;PMS_P1;PMS_P2;Temp;Humidity;BMP_temperature;BMP_pressure;BME280_temperature;BME280_humidity;BME280_pressure;Samples;Min_cycle;Max_cycle;Signal;HPM_P1;HPM_P2
2021/09/11 00:00:30;;;;;;;9.43;8.52;;;19.00;96.60;;;;;;4903301;29;20032;-83
2021/09/11 00:02:56;;;;;;;10.80;9.05;;;18.90;96.70;;;;;;4902856;29;20032;-82
2021/09/11 00:05:23;;;;;;;11.50;9.82;;;18.80;96.70;;;;;;4902687;29;20472;-84
2021/09/11 00:07:50;;;;;;;11.13;9.95;;;18.70;96.80;;;;;;4902726;29;20495;-83
2021/09/11 00:10:17;;;;;;;11.77;10.57;;;18.70;96.90;;;;;;4903308;29;20492;-84
2021/09/11 00:12:44;;;;;;;14.70;9.85;;;18.70;96.90;;;;;;4903142;29;20086;-84
2021/09/11 00:15:12;;;;;;;11.25;9.70;;;18.70;96.90;;;;;;4919340;29;20079;-85
2021/09/11 00:17:40;;;;;;;10.55;9.40;;;18.60;96.90;;;;;;4934863;29;20036;-84
2021/09/11 00:20:06;;;;;;;11.23;10.07;;;18.50;97.00;;;;;;4918063;29;20083;-83
2021/09/11 00:22:32;;;;;;;11.55;10.38;;;18.50;97.10;;;;;;4918468;29;20036;-84
2021/09/11 00:24:58;;;;;;;12.15;10.80;;;18.40;97.10;;;;;;4872159;29;20445;-83
2021/09/11 00:27:24;;;;;;;11.50;10.43;;;18.50;97.20;;;;;;4903329;29;20051;-84
2021/09/11 00:29:50;;;;;;;12.30;10.85;;;18.50;97.40;;;;;;4886718;29;20070;-85
2021/09/11 00:32:16;;;;;;;12.38;10.75;;;18.60;97.20;;;;;;4933811;29;20540;-84
2021/09/11 00:34:42;;;;;;;12.75;10.77;;;18.60;97.20;;;;;;4933564;29;20195;-84
2021/09/11 00:37:08;;;;;;;12.13;10.93;;;18.70;97.20;;;;;;4871353;29;20042;-84
2021/09/11 00:39:34;;;;;;;12.93;10.75;;;18.70;97.10;;;;;;4934262;29;20115;-83
2021/09/11 00:42:00;;;;;;;11.50;10.35;;;18.80;97.10;;;;;;4933727;29;20115;-85
2021/09/11 00:44:26;;;;;;;12.93;11.00;;;18.80;97.10;;;;;;4919082;29;20553;-84
2021/09/11 00:46:52;;;;;;;12.45;10.32;;;18.80;97.00;;;;;;4902431;29;20385;-85
2021/09/11 00:49:18;;;;;;;11.27;10.25;;;18.80;97.00;;;;;;4901799;29;20032;-84
2021/09/11 00:51:45;;;;;;;13.15;11.85;;;18.80;97.00;;;;;;4885891;29;20036;-85
2021/09/11 00:54:11;;;;;;;13.00;11.18;;;18.90;97.00;;;;;;4886178;29;20040;-83
2021/09/11 00:56:37;;;;;;;14.65;11.55;;;18.80;96.90;;;;;;4902820;29;20112;-84
2021/09/11 00:59:04;;;;;;;13.80;12.40;;;18.80;96.90;;;;;;4902637;29;20035;-83
2021/09/11 01:01:30;;;;;;;14.20;12.80;;;18.90;96.90;;;;;;4902278;29;20033;-84
2021/09/11 01:03:56;;;;;;;15.18;12.70;;;18.80;96.90;;;;;;4918510;29;20032;-82
2021/09/11 01:06:24;;;;;;;14.77;12.57;;;18.90;96.80;;;;;;4932651;29;20032;-84
2021/09/11 01:08:52;;;;;;;16.10;13.60;;;18.80;96.80;;;;;;4933817;29;20088;-84
2021/09/11 01:11:18;;;;;;;16.92;13.82;;;18.80;96.90;;;;;;4934056;29;20531;-85
2021/09/11 01:13:45;;;;;;;15.57;13.00;;;18.80;96.90;;;;;;4919590;29;20040;-83
2021/09/11 01:16:11;;;;;;;14.75;12.88;;;18.90;96.80;;;;;;4933362;29;20028;-85
2021/09/11 01:18:37;;;;;;;16.55;14.23;;;18.90;96.80;;;;;;4918141;29;20039;-84
2021/09/11 01:21:03;;;;;;;16.92;13.95;;;18.90;96.70;;;;;;4921928;29;20084;-85
2021/09/11 01:23:29;;;;;;;17.35;14.48;;;18.80;96.70;;;;;;4939789;29;20039;-84
2021/09/11 01:25:55;;;;;;;15.38;13.82;;;18.70;96.80;;;;;;4936072;29;20039;-84
2021/09/11 01:28:21;;;;;;;15.55;13.18;;;18.70;96.90;;;;;;4904750;29;20036;-84
2021/09/11 01:30:48;;;;;;;14.27;12.80;;;18.60;96.90;;;;;;4936118;29;20362;-83
2021/09/11 01:33:14;;;;;;;15.65;14.05;;;18.60;96.90;;;;;;4919733;29;20028;-84
2021/09/11 01:35:40;;;;;;;15.18;13.00;;;18.50;96.90;;;;;;4887673;29;20036;-84
2021/09/11 01:38:06;;;;;;;16.33;13.90;;;18.50;97.00;;;;;;4902427;29;20131;-84
2021/09/11 01:40:32;;;;;;;18.05;14.70;;;18.40;97.10;;;;;;4933130;29;20024;-83
2021/09/11 01:42:58;;;;;;;16.88;13.75;;;18.40;97.10;;;;;;4887044;29;20476;-84
2021/09/11 01:45:23;;;;;;;17.65;15.85;;;18.40;97.20;;;;;;4872215;29;20131;-83
2021/09/11 01:47:50;;;;;;;16.20;14.43;;;18.30;97.20;;;;;;4916638;29;20063;-83
2021/09/11 01:50:19;;;;;;;18.35;16.45;;;18.20;97.30;;;;;;4885480;29;20088;-84
2021/09/11 01:52:46;;;;;;;16.98;15.02;;;18.20;97.30;;;;;;4932121;29;20099;-84
2021/09/11 01:55:13;;;;;;;20.77;16.48;;;18.10;97.30;;;;;;4932307;29;20095;-83
2021/09/11 01:57:40;;;;;;;17.42;15.52;;;18.10;97.40;;;;;;4916580;29;20028;-84
2021/09/11 02:00:07;;;;;;;20.50;16.33;;;18.00;97.40;;;;;;4901208;29;20028;-83
2021/09/11 02:02:33;;;;;;;21.13;18.13;;;17.90;97.50;;;;;;4917738;29;20028;-83
2021/09/11 02:04:59;;;;;;;21.02;18.75;;;17.90;97.50;;;;;;4884750;29;20396;-84
2021/09/11 02:07:24;;;;;;;22.75;18.10;;;17.80;97.60;;;;;;4902271;29;20095;-84
2021/09/11 02:09:50;;;;;;;23.52;19.70;;;17.80;97.60;;;;;;4902647;29;20036;-84
2021/09/11 02:12:16;;;;;;;20.45;17.02;;;17.80;97.60;;;;;;4901898;29;20428;-83
2021/09/11 02:14:42;;;;;;;21.45;17.13;;;17.70;97.70;;;;;;4918038;29;20056;-83
2021/09/11 02:17:07;;;;;;;20.48;16.98;;;17.70;97.70;;;;;;4886364;29;20064;-83
2021/09/11 02:19:33;;;;;;;20.95;17.85;;;17.60;97.70;;;;;;4905968;29;20109;-83
2021/09/11 02:22:01;;;;;;;17.75;15.88;;;17.60;97.70;;;;;;4921441;29;20179;-83
2021/09/11 02:24:27;;;;;;;23.10;16.52;;;17.60;97.80;;;;;;4906203;29;20473;-83
2021/09/11 02:26:53;;;;;;;21.10;17.80;;;17.60;97.80;;;;;;4874491;29;20044;-83
2021/09/11 02:29:18;;;;;;;23.90;18.13;;;17.50;97.80;;;;;;4921795;29;20502;-82
2021/09/11 02:31:44;;;;;;;22.27;18.13;;;17.50;97.90;;;;;;4920112;29;20540;-84
2021/09/11 02:34:09;;;;;;;22.77;17.65;;;17.50;97.90;;;;;;4903715;29;20048;-83
2021/09/11 02:36:35;;;;;;;21.70;17.00;;;17.50;97.90;;;;;;4921244;29;20074;-84
2021/09/11 02:39:01;;;;;;;19.90;17.13;;;17.50;97.80;;;;;;4903800;29;20155;-84
2021/09/11 02:41:26;;;;;;;19.05;16.98;;;17.50;97.80;;;;;;4919955;29;20100;-84
2021/09/11 02:43:52;;;;;;;21.02;16.73;;;17.40;97.80;;;;;;4873149;29;20040;-83
2021/09/11 02:46:18;;;;;;;22.98;17.75;;;17.40;97.80;;;;;;4888515;29;20055;-84
2021/09/11 02:48:44;;;;;;;20.00;16.02;;;17.30;97.80;;;;;;4920109;29;20392;-83
2021/09/11 02:51:09;;;;;;;22.83;17.13;;;17.30;97.80;;;;;;4935770;29;20032;-84
2021/09/11 02:53:35;;;;;;;17.75;15.73;;;17.20;97.80;;;;;;4904252;29;20044;-84
2021/09/11 02:56:01;;;;;;;17.27;14.63;;;17.20;97.80;;;;;;4918796;29;20075;-83
2021/09/11 02:58:26;;;;;;;17.85;13.88;;;17.20;97.80;;;;;;4903525;29;20093;-84
2021/09/11 03:00:55;;;;;;;17.42;12.60;;;17.10;97.80;;;;;;4919134;29;20067;-83
2021/09/11 03:03:20;;;;;;;16.35;12.43;;;17.10;97.80;;;;;;4903481;29;20111;-83
2021/09/11 03:05:46;;;;;;;17.08;12.40;;;17.00;97.80;;;;;;4887785;29;20064;-83
2021/09/11 03:08:12;;;;;;;14.18;10.65;;;17.00;97.70;;;;;;4919319;29;20120;-84
2021/09/11 03:10:37;;;;;;;16.17;11.48;;;17.00;97.70;;;;;;4935058;29;20036;-83
2021/09/11 03:13:03;;;;;;;16.45;11.63;;;16.90;97.70;;;;;;4872890;29;20036;-83
2021/09/11 03:15:29;;;;;;;13.13;11.75;;;16.90;97.70;;;;;;4887908;29;20387;-84
2021/09/11 03:17:54;;;;;;;16.20;11.40;;;16.90;97.70;;;;;;4902945;29;20036;-84
2021/09/11 03:20:20;;;;;;;13.60;10.30;;;16.80;97.70;;;;;;4887649;29;20032;-83
2021/09/11 03:22:45;;;;;;;12.73;10.00;;;16.80;97.60;;;;;;4934486;29;20040;-83
2021/09/11 03:25:12;;;;;;;14.05;9.60;;;16.80;97.60;;;;;;4934715;29;20039;-83
2021/09/11 03:27:39;;;;;;;10.80;9.00;;;16.80;97.50;;;;;;4903235;29;20026;-84
2021/09/11 03:30:05;;;;;;;13.82;9.00;;;16.70;97.40;;;;;;4919389;29;20028;-83
2021/09/11 03:32:31;;;;;;;11.85;8.35;;;16.70;97.40;;;;;;4918859;29;20051;-83
2021/09/11 03:34:56;;;;;;;13.18;8.23;;;16.70;97.40;;;;;;4935484;29;20449;-83
2021/09/11 03:37:22;;;;;;;11.35;8.68;;;16.70;97.30;;;;;;4935573;29;20130;-83
2021/09/11 03:39:49;;;;;;;8.98;8.02;;;16.70;97.30;;;;;;4920054;29;20035;-83
2021/09/11 03:42:14;;;;;;;11.27;8.50;;;16.70;97.20;;;;;;4918683;29;20040;-83
2021/09/11 03:44:40;;;;;;;9.48;8.48;;;16.70;97.40;;;;;;4918168;29;20028;-84
2021/09/11 03:47:06;;;;;;;13.98;8.40;;;16.80;97.40;;;;;;4902430;29;20036;-83
2021/09/11 03:49:31;;;;;;;10.60;8.43;;;16.80;97.20;;;;;;4918153;29;20043;-84
2021/09/11 03:51:57;;;;;;;10.60;8.30;;;16.80;97.10;;;;;;4917949;29;20062;-83
2021/09/11 03:54:23;;;;;;;11.80;8.43;;;16.90;97.10;;;;;;4886458;29;20028;-82
2021/09/11 03:56:48;;;;;;;12.80;9.25;;;16.80;97.00;;;;;;4918286;29;20099;-83
2021/09/11 03:59:14;;;;;;;10.07;8.48;;;16.80;96.90;;;;;;4917622;29;20572;-84
2021/09/11 04:01:39;;;;;;;10.75;8.23;;;16.80;96.90;;;;;;4902208;29;20028;-83
2021/09/11 04:04:05;;;;;;;10.52;8.70;;;16.70;96.90;;;;;;4919112;29;20100;-83
2021/09/11 04:06:31;;;;;;;9.50;8.50;;;16.70;97.00;;;;;;4934392;29;20024;-84
2021/09/11 04:08:56;;;;;;;10.40;7.88;;;16.70;97.00;;;;;;4919801;29;20503;-83
2021/09/11 04:11:22;;;;;;;11.38;8.70;;;16.60;97.00;;;;;;4919803;29;20038;-83
2021/09/11 04:13:48;;;;;;;10.10;8.13;;;16.60;97.00;;;;;;4903586;29;20044;-83
2021/09/11 04:16:13;;;;;;;11.02;8.43;;;16.60;97.10;;;;;;4920629;29;20063;-83
2021/09/11 04:18:39;;;;;;;8.82;8.02;;;16.50;97.10;;;;;;4921270;29;20039;-83
2021/09/11 04:21:05;;;;;;;11.10;8.50;;;16.50;97.10;;;;;;4888050;29;20032;-83
2021/09/11 04:23:31;;;;;;;11.45;8.07;;;16.40;97.20;;;;;;4902958;29;20032;-83
2021/09/11 04:25:56;;;;;;;9.02;8.13;;;16.40;97.20;;;;;;4903640;29;20080;-81
2021/09/11 04:28:22;;;;;;;9.80;7.97;;;16.40;97.30;;;;;;4933346;29;20033;-82
2021/09/11 04:30:47;;;;;;;11.57;8.15;;;16.40;97.30;;;;;;4902522;29;20033;-82
2021/09/11 04:33:13;;;;;;;10.88;8.80;;;16.30;97.30;;;;;;4917343;29;20436;-82
2021/09/11 04:35:39;;;;;;;9.55;8.00;;;16.30;97.40;;;;;;4917435;29;20040;-83
2021/09/11 04:38:04;;;;;;;11.77;8.65;;;16.30;97.40;;;;;;4917959;29;20036;-83
2021/09/11 04:40:30;;;;;;;12.43;7.82;;;16.40;97.50;;;;;;4917659;29;20028;-83
2021/09/11 04:42:56;;;;;;;11.23;8.23;;;16.40;97.70;;;;;;4886039;29;20036;-83
2021/09/11 04:45:23;;;;;;;10.25;7.72;;;16.50;97.40;;;;;;4886011;29;20024;-83
2021/09/11 04:47:48;;;;;;;13.38;8.40;;;16.70;97.40;;;;;;4917930;29;20035;-83
2021/09/11 04:50:14;;;;;;;10.13;8.85;;;16.70;97.30;;;;;;4901765;29;20036;-82
2021/09/11 04:52:39;;;;;;;12.27;8.90;;;16.80;97.20;;;;;;4917503;29;20040;-83
2021/09/11 04:55:07;;;;;;;11.60;8.30;;;16.80;97.10;;;;;;4917470;29;20052;-83
2021/09/11 04:57:34;;;;;;;13.82;8.45;;;16.80;97.10;;;;;;4901719;29;20043;-83
2021/09/11 05:00:01;;;;;;;9.98;7.30;;;16.90;97.00;;;;;;4918708;29;20107;-82
2021/09/11 05:02:26;;;;;;;8.77;6.95;;;17.00;96.90;;;;;;4902616;29;20035;-83
2021/09/11 05:04:53;;;;;;;9.40;6.78;;;17.00;96.90;;;;;;4901713;29;20032;-84
2021/09/11 05:07:19;;;;;;;8.80;6.90;;;17.00;96.80;;;;;;4918485;29;20188;-83
2021/09/11 05:09:45;;;;;;;8.48;7.10;;;17.00;96.70;;;;;;4901592;29;20032;-84
2021/09/11 05:12:10;;;;;;;9.35;6.55;;;17.00;96.60;;;;;;4901285;29;20081;-83
2021/09/11 05:14:36;;;;;;;9.43;6.38;;;17.00;96.60;;;;;;4901498;29;20479;-83
2021/09/11 05:17:02;;;;;;;10.20;6.20;;;17.10;96.60;;;;;;4885857;29;20032;-84
2021/09/11 05:19:28;;;;;;;9.88;6.35;;;17.10;96.50;;;;;;4917511;29;20043;-83
2021/09/11 05:21:53;;;;;;;8.38;5.97;;;17.10;96.40;;;;;;4916623;29;20037;-84
2021/09/11 05:24:19;;;;;;;7.75;5.47;;;17.10;96.40;;;;;;4916809;29;20044;-83
2021/09/11 05:26:46;;;;;;;10.20;6.20;;;17.20;96.40;;;;;;4900872;29;20361;-84
2021/09/11 05:29:14;;;;;;;9.35;6.40;;;17.20;96.30;;;;;;4902534;29;20032;-84
2021/09/11 05:31:40;;;;;;;7.18;5.35;;;17.20;96.20;;;;;;4940395;29;20028;-84
2021/09/11 05:34:05;;;;;;;9.57;4.95;;;17.30;96.10;;;;;;4904529;29;20180;-83
2021/09/11 05:36:32;;;;;;;11.73;5.72;;;17.30;96.10;;;;;;4903629;29;20076;-84
2021/09/11 05:38:58;;;;;;;6.47;5.65;;;17.30;96.00;;;;;;4902643;29;20028;-84
2021/09/11 05:41:24;;;;;;;10.30;5.60;;;17.30;96.00;;;;;;4918515;29;20058;-84
2021/09/11 05:43:49;;;;;;;7.18;5.00;;;17.30;95.90;;;;;;4903237;29;20040;-83
2021/09/11 05:46:15;;;;;;;10.93;5.75;;;17.30;95.90;;;;;;4918062;29;20365;-84
2021/09/11 05:48:41;;;;;;;8.23;5.30;;;17.30;95.80;;;;;;4919506;29;20033;-83
2021/09/11 05:51:07;;;;;;;5.35;4.40;;;17.30;95.80;;;;;;4920090;29;20115;-83
2021/09/11 05:53:32;;;;;;;5.90;4.70;;;17.30;95.70;;;;;;4935807;29;20040;-83
2021/09/11 05:55:58;;;;;;;11.25;5.45;;;17.40;95.80;;;;;;4921507;29;20059;-84
2021/09/11 05:58:24;;;;;;;10.60;5.40;;;17.40;95.70;;;;;;4918827;29;20039;-85
2021/09/11 06:00:50;;;;;;;7.70;5.70;;;17.40;95.70;;;;;;4917196;29;20370;-85
2021/09/11 06:03:16;;;;;;;6.63;4.70;;;17.40;95.60;;;;;;4917338;29;20500;-84
2021/09/11 06:05:41;;;;;;;8.00;5.07;;;17.40;95.60;;;;;;4918293;29;20092;-84
2021/09/11 06:08:07;;;;;;;6.60;4.57;;;17.40;95.60;;;;;;4917560;29;20032;-85
2021/09/11 06:10:33;;;;;;;10.10;4.45;;;17.40;95.50;;;;;;4916690;29;20461;-84
2021/09/11 06:13:01;;;;;;;8.77;4.95;;;17.40;95.50;;;;;;4887508;29;20350;-84
2021/09/11 06:15:28;;;;;;;7.43;4.72;;;17.50;95.50;;;;;;4919041;29;20029;-85
2021/09/11 06:17:53;;;;;;;8.10;5.20;;;17.60;95.50;;;;;;4920714;29;20051;-83
2021/09/11 06:20:19;;;;;;;9.25;8.02;;;17.60;95.30;;;;;;4905509;29;20075;-84
2021/09/11 06:22:46;;;;;;;8.98;6.38;;;17.70;95.30;;;;;;4906616;29;20040;-86
2021/09/11 06:25:13;;;;;;;12.75;8.60;;;17.70;95.20;;;;;;4906876;29;20024;-84
2021/09/11 06:27:40;;;;;;;9.63;5.80;;;17.70;95.00;;;;;;4918619;29;20618;-82
2021/09/11 06:30:08;;;;;;;9.50;6.28;;;17.70;94.90;;;;;;4901693;29;20472;-83
2021/09/11 06:32:33;;;;;;;9.02;5.32;;;17.70;94.90;;;;;;4932312;29;20040;-85
2021/09/11 06:34:59;;;;;;;10.70;6.03;;;17.60;94.80;;;;;;4900723;29;20461;-84
2021/09/11 06:37:25;;;;;;;10.35;5.72;;;17.60;94.80;;;;;;4902059;29;20404;-85
2021/09/11 06:39:51;;;;;;;8.90;6.22;;;17.70;94.80;;;;;;4904501;29;20086;-85
2021/09/11 06:42:19;;;;;;;10.27;6.38;;;17.70;94.80;;;;;;4918944;29;20036;-84
2021/09/11 06:44:46;;;;;;;8.77;6.10;;;17.80;94.60;;;;;;4902773;29;20164;-84
2021/09/11 06:47:12;;;;;;;8.57;5.55;;;17.90;94.60;;;;;;4932672;29;20035;-82
2021/09/11 06:49:37;;;;;;;10.55;6.03;;;17.90;94.40;;;;;;4917584;29;20036;-84
2021/09/11 06:52:03;;;;;;;9.50;5.75;;;18.00;94.30;;;;;;4923023;29;20032;-86
2021/09/11 06:54:29;;;;;;;8.02;5.90;;;18.20;94.20;;;;;;4920287;29;20584;-86
2021/09/11 06:56:55;;;;;;;6.57;5.93;;;18.40;93.90;;;;;;4923919;29;20059;-84
2021/09/11 06:59:20;;;;;;;7.70;5.85;;;18.60;93.60;;;;;;4921398;29;20067;-85
2021/09/11 07:01:46;;;;;;;8.00;5.15;;;18.90;93.10;;;;;;4904684;29;20031;-86
2021/09/11 07:04:12;;;;;;;8.77;5.40;;;19.20;92.40;;;;;;4904774;29;20036;-84
2021/09/11 07:06:37;;;;;;;11.95;5.47;;;19.50;91.70;;;;;;4940656;29;20032;-85
2021/09/11 07:09:03;;;;;;;7.63;5.25;;;19.70;91.20;;;;;;4890935;29;20036;-85
2021/09/11 07:11:29;;;;;;;7.35;4.72;;;20.00;90.90;;;;;;4905586;29;20035;-87
2021/09/11 07:13:54;;;;;;;6.78;4.75;;;20.10;90.20;;;;;;4937068;29;20047;-86
2021/09/11 07:16:20;;;;;;;6.72;4.55;;;20.30;89.80;;;;;;4906087;29;20036;-85
2021/09/11 07:18:46;;;;;;;8.88;4.70;;;20.20;89.60;;;;;;4937491;29;20349;-85
2021/09/11 07:21:11;;;;;;;9.18;5.00;;;20.20;89.00;;;;;;4936684;29;20012;-88
2021/09/11 07:23:37;;;;;;;7.88;4.50;;;20.20;89.30;;;;;;4941875;29;20028;-87
2021/09/11 07:26:03;;;;;;;6.40;4.22;;;20.20;88.40;;;;;;4942337;29;20028;-86
2021/09/11 07:28:29;;;;;;;6.30;4.75;;;20.20;88.30;;;;;;4926124;29;20066;-87
2021/09/11 07:30:54;;;;;;;7.03;4.82;;;20.30;88.30;;;;;;4925677;29;20032;-86
2021/09/11 07:33:20;;;;;;;8.07;5.30;;;20.30;88.10;;;;;;4942243;29;20024;-87
2021/09/11 07:35:45;;;;;;;8.18;5.28;;;20.40;88.10;;;;;;4957215;28;20020;-86
2021/09/11 07:38:13;;;;;;;8.18;4.70;;;20.60;87.80;;;;;;4925676;29;20020;-85
2021/09/11 07:40:39;;;;;;;9.38;4.70;;;20.80;87.10;;;;;;4957198;28;20016;-86
2021/09/11 07:43:05;;;;;;;7.82;4.60;;;20.90;86.30;;;;;;4925830;29;20064;-88
2021/09/11 07:45:30;;;;;;;8.25;5.10;;;20.90;85.80;;;;;;4942035;29;20019;-87
2021/09/11 07:47:56;;;;;;;7.68;4.70;;;20.90;85.70;;;;;;4926179;29;20036;-85
2021/09/11 07:50:26;;;;;;;8.05;4.50;;;21.00;85.30;;;;;;4942369;29;20039;-87
2021/09/11 07:52:53;;;;;;;10.63;4.80;;;20.80;84.70;;;;;;4926016;29;20031;-85
2021/09/11 07:55:19;;;;;;;9.63;5.03;;;20.70;85.10;;;;;;4942188;29;20071;-85
2021/09/11 07:57:46;;;;;;;6.63;4.43;;;20.70;85.40;;;;;;4908949;29;20060;-85
2021/09/11 08:00:12;;;;;;;10.15;4.47;;;20.70;85.30;;;;;;4939884;29;20052;-85
2021/09/11 08:02:37;;;;;;;6.88;4.70;;;20.60;85.00;;;;;;4938712;29;20033;-84
2021/09/11 08:05:03;;;;;;;8.45;4.95;;;20.60;85.60;;;;;;4931128;29;20528;-84
2021/09/11 08:07:29;;;;;;;10.43;5.28;;;20.80;85.80;;;;;;4931973;29;20071;-84
2021/09/11 08:09:56;;;;;;;8.38;4.90;;;20.90;85.40;;;;;;4934974;29;20021;-84
2021/09/11 08:12:22;;;;;;;7.13;4.55;;;21.00;85.30;;;;;;4932857;29;20088;-86
2021/09/11 08:14:48;;;;;;;7.57;4.85;;;21.20;84.50;;;;;;4915548;29;20043;-85
2021/09/11 08:17:14;;;;;;;8.57;5.10;;;21.20;84.00;;;;;;4945856;29;20420;-85
2021/09/11 08:19:39;;;;;;;8.82;5.18;;;21.30;83.50;;;;;;4933160;29;20036;-85
2021/09/11 08:22:05;;;;;;;6.95;4.60;;;21.50;83.40;;;;;;4931143;29;20032;-86
2021/09/11 08:24:31;;;;;;;7.50;4.93;;;21.60;82.60;;;;;;4933414;29;20036;-84
2021/09/11 08:26:57;;;;;;;10.77;5.47;;;21.70;82.20;;;;;;4906211;29;20031;-86
2021/09/11 08:29:22;;;;;;;9.30;5.22;;;21.70;82.10;;;;;;4922434;29;20068;-85
2021/09/11 08:31:48;;;;;;;10.90;5.07;;;21.90;82.00;;;;;;4917647;29;20036;-85
2021/09/11 08:34:14;;;;;;;8.00;4.63;;;22.00;81.60;;;;;;4933954;29;20047;-84
2021/09/11 08:36:39;;;;;;;8.13;4.90;;;22.10;81.20;;;;;;4937039;29;20040;-85
2021/09/11 08:39:05;;;;;;;6.43;4.38;;;22.20;80.80;;;;;;4913507;29;20056;-87
2021/09/11 08:41:32;;;;;;;7.25;4.20;;;22.10;80.40;;;;;;4936299;29;20057;-85
2021/09/11 08:44:00;;;;;;;7.38;4.88;;;22.10;80.50;;;;;;4925175;29;20036;-87
2021/09/11 08:46:29;;;;;;;8.70;5.43;;;22.10;80.50;;;;;;4903867;29;20028;-83
2021/09/11 08:48:55;;;;;;;10.10;5.40;;;22.20;80.00;;;;;;4918719;29;20080;-85
2021/09/11 08:51:23;;;;;;;7.32;5.00;;;22.40;79.90;;;;;;4934945;29;20071;-85
2021/09/11 08:53:49;;;;;;;9.35;5.18;;;22.60;79.30;;;;;;4903512;29;20118;-85
2021/09/11 08:56:14;;;;;;;7.65;5.10;;;22.80;78.70;;;;;;4920272;29;20079;-86
2021/09/11 08:58:40;;;;;;;7.88;4.60;;;22.70;78.30;;;;;;4903262;29;20032;-85
2021/09/11 09:01:05;;;;;;;9.80;5.18;;;22.70;78.50;;;;;;4920967;29;20029;-84
2021/09/11 09:03:34;;;;;;;9.35;5.28;;;22.80;78.00;;;;;;4910825;29;20480;-85
2021/09/11 09:06:28;;;;;;;9.25;6.28;;;22.70;78.30;;;;;;4927802;29;20131;-84
2021/09/11 09:09:04;;;;;;;6.97;5.00;;;22.80;78.40;;;;;;4908924;29;20108;-85
2021/09/11 09:11:32;;;;;;;8.18;5.10;;;23.20;77.40;;;;;;4902967;29;20446;-86
2021/09/11 09:14:04;;;;;;;7.45;4.55;;;23.50;76.60;;;;;;4934847;29;20047;-85
2021/09/11 09:16:41;;;;;;;7.90;4.05;;;23.70;75.80;;;;;;4920735;29;20115;-84
2021/09/11 09:19:26;;;;;;;5.85;4.03;;;24.00;76.10;;;;;;4907184;29;20024;-84
2021/09/11 09:21:59;;;;;;;5.00;3.78;;;24.50;74.20;;;;;;4934134;29;20036;-85
2021/09/11 09:24:35;;;;;;;6.78;3.85;;;24.80;73.00;;;;;;4924362;29;20136;-85
2021/09/11 09:27:10;;;;;;;5.28;3.13;;;25.10;72.00;;;;;;4923714;29;20036;-84
2021/09/11 09:29:37;;;;;;;6.88;3.55;;;25.40;71.20;;;;;;4924607;29;20036;-82
2021/09/11 09:32:03;;;;;;;4.90;3.15;;;25.70;70.30;;;;;;4955888;29;20092;-84
2021/09/11 09:34:30;;;;;;;3.40;3.10;;;25.70;68.90;;;;;;4955945;28;20031;-85
2021/09/11 09:37:32;;;;;;;4.35;2.80;;;25.50;68.70;;;;;;4940928;29;20068;-85
2021/09/11 09:39:59;;;;;;;5.63;2.97;;;25.30;68.90;;;;;;4933167;29;20047;-86
2021/09/11 09:42:38;;;;;;;3.72;2.35;;;25.00;69.00;;;;;;4921478;29;20020;-84
2021/09/11 09:45:04;;;;;;;6.05;3.08;;;24.80;69.10;;;;;;4920820;29;20408;-85
2021/09/11 09:47:30;;;;;;;3.63;2.28;;;24.90;69.70;;;;;;4899592;29;20036;-86
2021/09/11 09:50:10;;;;;;;5.40;3.53;;;25.10;69.70;;;;;;4915973;29;20063;-84
2021/09/11 09:52:38;;;;;;;4.47;2.97;;;25.20;68.80;;;;;;4921858;29;20143;-85
2021/09/11 09:55:06;;;;;;;5.25;3.53;;;25.10;68.50;;;;;;4938238;29;20083;-85
2021/09/11 09:57:33;;;;;;;2.78;2.10;;;25.00;68.90;;;;;;4909737;29;20032;-85
2021/09/11 09:59:59;;;;;;;4.10;2.67;;;24.90;68.90;;;;;;4938160;29;20043;-85
2021/09/11 10:02:24;;;;;;;4.75;2.75;;;24.80;69.10;;;;;;4933912;29;20036;-85
2021/09/11 10:04:51;;;;;;;4.93;2.92;;;24.90;69.50;;;;;;4916868;29;20025;-85
2021/09/11 10:07:20;;;;;;;3.70;2.38;;;25.20;68.90;;;;;;4932987;29;20035;-87
2021/09/11 10:09:50;;;;;;;3.10;2.60;;;25.50;68.50;;;;;;4917193;29;20060;-86
2021/09/11 10:12:51;;;;;;;4.05;2.38;;;25.70;66.90;;;;;;4917224;29;20036;-86
2021/09/11 10:15:28;;;;;;;5.53;2.53;;;25.70;67.10;;;;;;4828989;29;20056;-85
2021/09/11 10:17:55;;;;;;;4.10;2.75;;;25.50;67.60;;;;;;4909877;29;20044;-85
2021/09/11 10:20:22;;;;;;;4.65;2.90;;;25.30;67.50;;;;;;4916797;29;20028;-84
2021/09/11 10:23:08;;;;;;;5.90;3.47;;;25.10;68.20;;;;;;4916435;29;20083;-85
2021/09/11 10:25:44;;;;;;;5.22;2.83;;;25.00;68.60;;;;;;4916670;29;20342;-85
2021/09/11 10:28:18;;;;;;;6.35;2.90;;;25.30;68.80;;;;;;4916210;29;20115;-84
2021/09/11 10:31:05;;;;;;;3.80;2.50;;;25.50;68.10;;;;;;4900600;29;20055;-84
2021/09/11 10:33:45;;;;;;;4.20;3.38;;;25.50;67.80;;;;;;4903358;29;20040;-84
2021/09/11 10:36:31;;;;;;;5.10;2.90;;;25.30;67.40;;;;;;4903104;29;20056;-85
2021/09/11 10:39:08;;;;;;;4.05;2.75;;;25.10;67.80;;;;;;4894679;29;20036;-84
2021/09/11 10:41:33;;;;;;;4.25;2.85;;;25.00;68.40;;;;;;4935959;29;20042;-83
2021/09/11 10:44:07;;;;;;;4.13;2.97;;;24.70;68.70;;;;;;4935614;29;20476;-83
2021/09/11 10:46:52;;;;;;;5.93;2.83;;;24.60;68.90;;;;;;4888036;29;20441;-84
2021/09/11 10:49:35;;;;;;;4.35;2.83;;;24.50;68.90;;;;;;4903877;29;20027;-82
2021/09/11 10:52:09;;;;;;;4.55;2.78;;;24.50;71.10;;;;;;4935888;29;20479;-81
2021/09/11 10:54:42;;;;;;;2.78;2.20;;;24.60;70.30;;;;;;4903067;29;20059;-80
2021/09/11 10:57:26;;;;;;;;;;;24.60;69.90;;;;;;4941833;29;20028;-81
2021/09/11 10:59:52;;;;;;;4.80;3.10;;;24.50;69.70;;;;;;4915531;29;19914;-80
2021/09/11 11:02:39;;;;;;;4.65;2.75;;;24.40;70.10;;;;;;4923650;29;20036;-80
2021/09/11 11:05:10;;;;;;;3.42;2.97;;;24.20;69.80;;;;;;4929108;29;20079;-81
2021/09/11 11:07:44;;;;;;;4.25;3.22;;;24.30;70.30;;;;;;4925026;29;20056;-80
2021/09/11 11:10:21;;;;;;;4.57;3.50;;;24.30;70.50;;;;;;4904828;29;20036;-79
2021/09/11 11:12:49;;;;;;;6.70;3.17;;;24.40;70.50;;;;;;4920521;29;20163;-79
2021/09/11 11:15:25;;;;;;;3.92;2.88;;;24.40;70.20;;;;;;4935349;29;20087;-79
2021/09/11 11:17:51;;;;;;;4.15;2.83;;;24.30;70.10;;;;;;4904120;29;20028;-79
2021/09/11 11:20:27;;;;;;;4.07;2.85;;;24.40;70.10;;;;;;4935499;29;20032;-80
2021/09/11 11:22:56;;;;;;;3.95;2.72;;;24.40;69.90;;;;;;4920678;29;20024;-80
2021/09/11 11:25:32;;;;;;;3.50;2.72;;;24.30;69.90;;;;;;4921024;29;20024;-81
2021/09/11 11:27:58;;;;;;;3.47;2.80;;;24.20;70.00;;;;;;4920514;29;20034;-81
2021/09/11 11:30:24;;;;;;;3.90;3.00;;;24.10;70.20;;;;;;4904723;29;20033;-78
2021/09/11 11:32:50;;;;;;;5.43;2.40;;;24.20;70.50;;;;;;4904178;29;20044;-80
2021/09/11 11:35:15;;;;;;;3.75;2.20;;;24.30;70.40;;;;;;4905146;29;20055;-78
2021/09/11 11:37:42;;;;;;;4.10;2.05;;;24.30;70.30;;;;;;4904650;29;20479;-79
2021/09/11 11:40:15;;;;;;;3.65;2.40;;;24.40;70.20;;;;;;4920512;29;20033;-80
2021/09/11 11:42:45;;;;;;;3.70;2.53;;;24.60;69.90;;;;;;4935579;29;20060;-80
2021/09/11 11:45:16;;;;;;;3.15;2.00;;;24.80;69.30;;;;;;4935043;29;20114;-80
2021/09/11 11:48:06;;;;;;;3.38;2.20;;;24.90;68.80;;;;;;4919189;29;20041;-79
2021/09/11 11:50:43;;;;;;;5.63;2.15;;;25.10;67.90;;;;;;4935299;29;20052;-80
2021/09/11 11:53:15;;;;;;;3.15;2.13;;;25.10;67.50;;;;;;4904018;29;20388;-80
2021/09/11 11:55:45;;;;;;;3.53;2.00;;;25.10;67.40;;;;;;4923832;29;20045;-80
2021/09/11 11:58:16;;;;;;;2.25;1.50;;;25.20;67.50;;;;;;4916680;29;20361;-81
2021/09/11 12:00:47;;;;;;;2.97;1.42;;;25.30;67.10;;;;;;4917708;29;20047;-81
2021/09/11 12:03:34;;;;;;;3.95;1.40;;;25.40;67.00;;;;;;4918617;29;20172;-81
2021/09/11 12:06:05;;;;;;;3.42;1.58;;;25.60;66.60;;;;;;4885209;29;20545;-80
2021/09/11 12:08:37;;;;;;;2.10;1.50;;;25.70;66.00;;;;;;4917757;29;20028;-80
2021/09/11 12:11:03;;;;;;;2.90;1.30;;;25.60;65.70;;;;;;4885063;29;20032;-82
2021/09/11 12:13:30;;;;;;;2.80;1.20;;;25.50;65.50;;;;;;4883645;29;20044;-81
2021/09/11 12:15:55;;;;;;;1.90;0.90;;;25.60;65.90;;;;;;4883780;29;20601;-79
2021/09/11 12:18:21;;;;;;;2.47;1.05;;;25.70;65.90;;;;;;4900038;29;20107;-78
2021/09/11 12:20:54;;;;;;;2.00;1.17;;;25.80;65.70;;;;;;4899386;29;20056;-80
2021/09/11 12:23:28;;;;;;;3.13;1.45;;;25.90;65.40;;;;;;4901468;29;20048;-79
2021/09/11 12:26:14;;;;;;;2.30;1.10;;;25.80;65.10;;;;;;4884267;29;20063;-79
2021/09/11 12:28:43;;;;;;;2.67;1.33;;;25.80;65.20;;;;;;4868000;29;20047;-79
2021/09/11 12:31:08;;;;;;;2.95;1.20;;;25.60;65.10;;;;;;4883407;29;20457;-81
2021/09/11 12:34:19;;;;;;;3.28;1.48;;;25.30;65.30;;;;;;4900301;29;20064;-80
2021/09/11 12:36:50;;;;;;;2.22;1.30;;;25.10;66.40;;;;;;4869504;29;20048;-81
2021/09/11 12:39:15;;;;;;;3.35;1.15;;;25.00;66.80;;;;;;4915491;29;20024;-81
2021/09/11 12:41:43;;;;;;;2.05;1.25;;;25.00;67.10;;;;;;4901540;29;20035;-81
2021/09/11 12:44:09;;;;;;;2.50;1.40;;;24.90;67.00;;;;;;4905576;29;20541;-81